Rapid River, MI

5:47 PM EST on February 13, 2016 (GMT -0500)
Delta County | | Change Station
CLOSE
Current Station
Airport
Location: Escanaba,
Elevation: 607 ft
Nearby Weather Stations

Elev 607 ft 45.72 °N, 87.09 °W | Updated 12 minutes ago

Partly Cloudy
Partly Cloudy
12 °F
Feels Like 2 °F
N
7
Wind Variable Wind from NW

Today
High -- | Low -- °F
--% Chance of Precip.
Yesterday
High -- | Low -- °F
Precip. -- in
Pressure 30.45 in
Visibility 10.0 miles
Clouds Clear
Windchill 2 °F
Dew Point -11 °F
Humidity 34%
Rainfall 0.00 in
Snow Depth Not available.
7:53 AM 6:10 PM
Waxing Crescent, 35% visible
METAR KESC 132235Z AUTO 31006KT 10SM CLR M11/M24 A3045 RMK AO1
Pressure 30.45 in
Visibility 10.0 miles
Clouds Clear
Windchill 2 °F
Dew Point -11 °F
Humidity 34%
Rainfall 0.00 in
Snow Depth Not available.
7:53 AM 6:10 PM
Waxing Crescent, 35% visible
METAR KESC 132235Z AUTO 31006KT 10SM CLR M11/M24 A3045 RMK AO1

10-Day Weather Forecast

Almanac

Astronomy

Feb. 13, 2016 Rise Set
Actual Time
Civil Twilight
Nautical Twilight
Astronomical Twilight
Moon
Length of Visible Light
Length of Day
Tomorrow will be .
, % of the Moon is Illuminated

Today's Extremes

State Highs State Lows

Community

WunderPhotos

Upload Photos

1,892,689 photos uploaded!

WunderBlog® & News

Nearby

Air Quality

  Air Quality AQ Index Pollutant
Not available.

Snow Depth

Station Depth Elevation

Earthquake Activity

City Distance Mag. Time & Date
Minimum magnitude displayed is 2.5.

Coastal Water Temperatures

Place Temperature

Stations

Nearby Weather Stations

Station Location Temp. Windchill Dew Point Humidity Wind Precip. Elev Updated Type
                   

Watches & Warnings

There are currently no watches in effect.